Time;durP1;ratioP1;P1;durP2;ratioP2;P2;SDS_P1;SDS_P2;PMS_P1;PMS_P2;Temp;Humidity;BMP_temperature;BMP_pressure;BME280_temperature;BME280_humidity;BME280_pressure;Samples;Min_cycle;Max_cycle;Signal;HPM_P1;HPM_P2
2022/04/13 00:00:05;;;;;;;13.73;9.93;;;12.20;99.90;;;;;;4945510;29;20528;-60
2022/04/13 00:02:30;;;;;;;16.52;10.85;;;12.10;99.90;;;;;;4953320;29;20051;-61
2022/04/13 00:04:56;;;;;;;12.15;9.90;;;12.00;99.90;;;;;;4942830;28;20046;-61
2022/04/13 00:07:22;;;;;;;12.75;10.38;;;11.90;99.90;;;;;;4948187;29;20047;-61
2022/04/13 00:09:48;;;;;;;12.63;9.82;;;11.90;99.90;;;;;;4952979;29;20560;-61
2022/04/13 00:12:13;;;;;;;14.00;9.35;;;11.80;99.90;;;;;;4951118;28;20066;-61
2022/04/13 00:14:39;;;;;;;12.10;10.32;;;11.70;99.90;;;;;;4942536;29;20078;-61
2022/04/13 00:17:04;;;;;;;14.40;11.50;;;11.70;99.90;;;;;;4957023;29;20078;-61
2022/04/13 00:19:30;;;;;;;13.73;10.73;;;11.80;99.90;;;;;;4957339;29;20129;-61
2022/04/13 00:21:56;;;;;;;16.60;11.23;;;11.70;99.90;;;;;;4945795;28;20546;-61
2022/04/13 00:24:22;;;;;;;15.90;11.60;;;11.60;99.90;;;;;;4956259;29;20404;-61
2022/04/13 00:26:47;;;;;;;15.63;11.88;;;11.60;99.90;;;;;;4957230;29;20083;-61
2022/04/13 00:29:13;;;;;;;17.08;12.57;;;11.70;99.90;;;;;;4945789;28;20047;-61
2022/04/13 00:31:39;;;;;;;16.83;12.77;;;11.80;99.90;;;;;;4954928;29;20054;-61
2022/04/13 00:34:05;;;;;;;16.40;13.02;;;11.90;99.90;;;;;;4956639;28;20182;-61
2022/04/13 00:36:31;;;;;;;19.45;13.13;;;12.00;99.90;;;;;;4953882;28;20149;-61
2022/04/13 00:38:56;;;;;;;17.98;13.48;;;12.20;99.90;;;;;;4955399;29;20057;-61
2022/04/13 00:41:22;;;;;;;18.83;12.90;;;12.30;99.90;;;;;;4956347;29;20050;-61
2022/04/13 00:44:05;;;;;;;16.45;13.02;;;12.40;99.90;;;;;;4956701;29;20051;-61
2022/04/13 00:46:31;;;;;;;18.48;14.02;;;12.50;99.90;;;;;;4947611;28;20048;-61
2022/04/13 00:48:58;;;;;;;17.90;13.30;;;12.60;99.90;;;;;;4941662;29;20043;-61
2022/04/13 00:51:25;;;;;;;18.80;13.57;;;12.60;99.90;;;;;;4943910;29;20071;-61
2022/04/13 00:53:51;;;;;;;16.65;13.73;;;12.60;99.90;;;;;;4953313;28;20095;-61
2022/04/13 00:56:23;;;;;;;20.10;14.43;;;12.60;99.90;;;;;;4944646;29;20126;-62
2022/04/13 00:58:54;;;;;;;17.75;14.10;;;12.60;99.90;;;;;;4956092;28;20050;-60
2022/04/13 01:01:24;;;;;;;20.05;14.32;;;12.70;99.90;;;;;;4956708;28;20031;-61
2022/04/13 01:03:54;;;;;;;15.75;12.10;;;12.70;99.90;;;;;;4948366;28;20442;-61
2022/04/13 01:06:20;;;;;;;15.55;12.40;;;12.70;99.90;;;;;;4954584;28;20170;-60
2022/04/13 01:08:49;;;;;;;21.05;14.20;;;12.60;99.90;;;;;;4956469;29;20126;-61
2022/04/13 01:11:19;;;;;;;20.13;14.38;;;12.60;99.90;;;;;;4949890;28;20413;-61
2022/04/13 01:13:45;;;;;;;21.80;14.70;;;12.70;99.90;;;;;;4948051;29;20039;-61
2022/04/13 01:16:12;;;;;;;19.13;13.77;;;12.70;99.90;;;;;;4956105;29;20114;-61
2022/04/13 01:18:37;;;;;;;19.05;14.15;;;12.80;99.90;;;;;;4956002;28;20493;-61
2022/04/13 01:21:05;;;;;;;21.02;13.70;;;12.80;99.90;;;;;;4945547;28;20114;-61
2022/04/13 01:23:31;;;;;;;18.08;14.30;;;12.90;99.90;;;;;;4947360;28;20098;-61
2022/04/13 01:25:56;;;;;;;23.27;14.80;;;12.90;99.90;;;;;;4955629;29;20043;-61
2022/04/13 01:28:23;;;;;;;22.70;14.52;;;13.00;99.90;;;;;;4942902;28;20039;-61
2022/04/13 01:30:49;;;;;;;22.02;14.80;;;13.00;99.90;;;;;;4954033;29;20035;-61
2022/04/13 01:33:14;;;;;;;21.65;14.55;;;13.00;99.90;;;;;;4955606;29;20162;-61
2022/04/13 01:35:40;;;;;;;21.48;14.48;;;13.00;99.90;;;;;;4956229;29;20051;-61
2022/04/13 01:38:06;;;;;;;21.63;15.23;;;13.00;99.90;;;;;;4944368;28;20075;-61
2022/04/13 01:40:33;;;;;;;20.98;15.10;;;12.90;99.90;;;;;;4952086;28;20046;-61
2022/04/13 01:42:58;;;;;;;18.27;15.27;;;12.90;99.90;;;;;;4952931;28;20074;-61
2022/04/13 01:45:24;;;;;;;22.08;15.20;;;12.80;99.90;;;;;;4941435;29;20079;-61
2022/04/13 01:47:50;;;;;;;19.15;15.18;;;12.80;99.90;;;;;;4953583;29;20067;-61
2022/04/13 01:50:19;;;;;;;15.45;12.98;;;12.70;99.90;;;;;;4955744;28;20413;-61
2022/04/13 01:52:46;;;;;;;16.95;12.35;;;12.50;99.90;;;;;;4944201;28;20044;-61
2022/04/13 01:55:12;;;;;;;15.32;12.48;;;12.30;99.90;;;;;;4950181;28;20043;-61
2022/04/13 01:57:38;;;;;;;15.23;12.52;;;12.20;99.90;;;;;;4955316;29;20047;-62
2022/04/13 02:00:06;;;;;;;17.77;13.18;;;12.10;99.90;;;;;;4952192;28;20046;-61
2022/04/13 02:02:32;;;;;;;18.67;12.70;;;12.00;99.90;;;;;;4939957;29;20051;-61
2022/04/13 02:04:58;;;;;;;20.33;13.63;;;11.80;99.90;;;;;;4954435;29;20071;-61
2022/04/13 02:07:23;;;;;;;18.70;14.45;;;11.70;99.90;;;;;;4955640;28;20073;-61
2022/04/13 02:09:49;;;;;;;24.90;15.65;;;11.70;99.90;;;;;;4951760;28;20067;-61
2022/04/13 02:12:15;;;;;;;19.02;14.85;;;11.80;99.90;;;;;;4954727;29;20075;-61
2022/04/13 02:14:41;;;;;;;19.80;15.50;;;11.80;99.90;;;;;;4954577;29;20043;-61
2022/04/13 02:17:06;;;;;;;18.73;14.45;;;11.80;99.90;;;;;;4947058;28;20035;-61
2022/04/13 02:19:32;;;;;;;21.05;15.35;;;11.80;99.90;;;;;;4948815;29;20043;-61
2022/04/13 02:21:57;;;;;;;20.50;14.43;;;11.80;99.90;;;;;;4954782;28;20178;-61
2022/04/13 02:24:23;;;;;;;21.50;15.05;;;11.70;99.90;;;;;;4955039;29;20398;-61
2022/04/13 02:26:48;;;;;;;19.85;15.43;;;11.70;99.90;;;;;;4945046;28;20406;-61
2022/04/13 02:29:14;;;;;;;23.90;16.50;;;11.80;99.90;;;;;;4947563;29;20558;-61
2022/04/13 02:31:40;;;;;;;25.55;15.95;;;11.80;99.90;;;;;;4954524;28;20048;-61
2022/04/13 02:34:06;;;;;;;25.98;15.55;;;11.80;99.90;;;;;;4947403;28;20047;-61
2022/04/13 02:36:32;;;;;;;13.63;10.98;;;11.80;99.90;;;;;;4944782;28;20039;-61
2022/04/13 02:38:58;;;;;;;17.70;12.65;;;11.80;99.90;;;;;;4954376;29;20498;-61
2022/04/13 02:41:23;;;;;;;22.10;14.90;;;11.40;99.90;;;;;;4952000;28;20038;-61
2022/04/13 02:43:49;;;;;;;25.52;15.90;;;11.50;99.90;;;;;;4952838;29;20039;-61
2022/04/13 02:46:14;;;;;;;22.25;15.25;;;11.50;99.90;;;;;;4954495;29;20042;-61
2022/04/13 02:48:40;;;;;;;22.83;15.20;;;11.60;99.90;;;;;;4954636;29;20124;-61
2022/04/13 02:51:05;;;;;;;19.50;15.30;;;11.60;99.90;;;;;;4936318;28;20375;-61
2022/04/13 02:53:31;;;;;;;24.00;15.48;;;11.60;99.90;;;;;;4942642;29;20441;-61
2022/04/13 02:55:58;;;;;;;21.40;15.75;;;11.60;99.90;;;;;;4954000;28;20115;-60
2022/04/13 02:58:24;;;;;;;20.65;15.70;;;11.60;99.90;;;;;;4951908;28;20098;-61
2022/04/13 03:00:49;;;;;;;21.75;15.38;;;11.60;99.90;;;;;;4933516;29;20047;-61
2022/04/13 03:03:16;;;;;;;23.23;14.75;;;11.60;99.90;;;;;;4953982;28;20062;-60
2022/04/13 03:05:43;;;;;;;20.75;15.00;;;11.60;99.90;;;;;;4954374;29;20039;-61
2022/04/13 03:08:08;;;;;;;25.58;15.43;;;11.70;99.90;;;;;;4950825;28;20383;-61
2022/04/13 03:10:34;;;;;;;20.30;15.52;;;11.70;99.90;;;;;;4951717;29;20520;-61
2022/04/13 03:13:00;;;;;;;19.40;14.40;;;11.70;99.90;;;;;;4953446;29;20502;-60
2022/04/13 03:15:25;;;;;;;19.65;14.63;;;11.60;99.90;;;;;;4939797;28;20047;-61
2022/04/13 03:17:51;;;;;;;25.70;16.92;;;11.60;99.90;;;;;;4952095;29;20055;-61
2022/04/13 03:20:18;;;;;;;22.00;16.45;;;11.50;99.90;;;;;;4946991;29;20043;-61
2022/04/13 03:22:43;;;;;;;23.73;15.50;;;11.40;99.90;;;;;;4946460;29;20600;-63
2022/04/13 03:25:11;;;;;;;22.98;15.15;;;11.20;99.90;;;;;;4944670;28;20092;-63
2022/04/13 03:27:37;;;;;;;24.13;16.40;;;11.10;99.90;;;;;;4952933;29;20042;-62
2022/04/13 03:30:04;;;;;;;21.23;16.48;;;11.00;99.90;;;;;;4936743;29;20050;-62
2022/04/13 03:32:40;;;;;;;27.10;15.65;;;11.00;99.90;;;;;;4945741;28;20055;-63
2022/04/13 03:35:07;;;;;;;26.05;15.45;;;11.10;99.90;;;;;;4937183;28;20042;-59
2022/04/13 03:37:33;;;;;;;24.00;15.38;;;11.10;99.90;;;;;;4951937;29;20054;-61
2022/04/13 03:39:58;;;;;;;24.77;15.65;;;11.20;99.90;;;;;;4949755;28;20044;-63
2022/04/13 03:42:24;;;;;;;20.95;16.30;;;11.10;99.90;;;;;;4952313;29;20039;-62
2022/04/13 03:44:49;;;;;;;26.08;16.17;;;11.20;99.90;;;;;;4950202;29;20046;-63
2022/04/13 03:47:15;;;;;;;22.33;15.77;;;11.30;99.90;;;;;;4953244;28;20044;-62
2022/04/13 03:49:41;;;;;;;26.60;16.08;;;11.30;99.90;;;;;;4941445;28;20043;-63
2022/04/13 03:52:07;;;;;;;24.35;16.45;;;11.30;99.90;;;;;;4943463;28;20043;-63
2022/04/13 03:54:32;;;;;;;24.83;16.17;;;11.40;99.90;;;;;;4952766;29;20047;-63
2022/04/13 03:56:58;;;;;;;23.67;16.17;;;11.40;99.90;;;;;;4945873;28;20070;-63
2022/04/13 03:59:24;;;;;;;27.25;16.33;;;11.40;99.90;;;;;;4945868;29;20110;-63
2022/04/13 04:01:50;;;;;;;22.33;16.75;;;11.40;99.90;;;;;;4953079;28;20767;-62
2022/04/13 04:04:15;;;;;;;22.02;15.13;;;11.30;99.90;;;;;;4953049;29;20039;-62
2022/04/13 04:06:41;;;;;;;16.00;12.38;;;11.20;99.90;;;;;;4950076;28;20039;-63
2022/04/13 04:09:07;;;;;;;18.65;11.90;;;11.00;99.90;;;;;;4952623;29;20047;-63
2022/04/13 04:11:33;;;;;;;23.70;15.98;;;10.90;99.90;;;;;;4952252;29;20047;-63
2022/04/13 04:13:59;;;;;;;25.48;16.85;;;10.90;99.90;;;;;;4948430;28;20046;-63
2022/04/13 04:16:25;;;;;;;22.65;17.27;;;11.00;99.90;;;;;;4952675;28;20035;-63
2022/04/13 04:18:51;;;;;;;24.42;17.10;;;11.00;99.90;;;;;;4952550;29;20565;-63
2022/04/13 04:21:16;;;;;;;27.08;17.95;;;11.00;99.90;;;;;;4949258;28;20094;-63
2022/04/13 04:23:43;;;;;;;29.85;17.15;;;11.00;99.90;;;;;;4935658;29;20499;-63
2022/04/13 04:26:09;;;;;;;29.05;18.05;;;11.00;99.90;;;;;;4952138;28;20086;-63
2022/04/13 04:28:34;;;;;;;27.13;18.52;;;10.90;99.90;;;;;;4943577;28;20046;-63
2022/04/13 04:31:01;;;;;;;29.55;18.45;;;10.90;99.90;;;;;;4932718;28;20181;-62
2022/04/13 04:33:27;;;;;;;26.77;18.60;;;10.90;99.90;;;;;;4940550;29;20032;-63
2022/04/13 04:35:52;;;;;;;16.75;13.43;;;10.90;99.90;;;;;;4949779;29;20093;-61
2022/04/13 04:38:19;;;;;;;17.75;13.13;;;10.80;99.90;;;;;;4950586;29;20512;-61
2022/04/13 04:40:44;;;;;;;15.85;12.07;;;10.70;99.90;;;;;;4952826;29;20501;-60
2022/04/13 04:43:10;;;;;;;24.75;15.25;;;10.60;99.90;;;;;;4953053;29;20043;-58
2022/04/13 04:45:36;;;;;;;22.45;13.75;;;10.60;99.90;;;;;;4945402;28;20039;-64
2022/04/13 04:48:05;;;;;;;13.25;11.10;;;10.60;99.90;;;;;;4939472;29;20411;-59
2022/04/13 04:50:31;;;;;;;19.88;13.25;;;10.40;99.90;;;;;;4952965;29;20040;-59
2022/04/13 04:52:57;;;;;;;20.52;14.48;;;10.40;99.90;;;;;;4953180;28;20102;-63
2022/04/13 04:55:23;;;;;;;18.05;12.50;;;10.40;99.90;;;;;;4948131;28;20075;-59
2022/04/13 04:57:49;;;;;;;21.63;13.75;;;10.30;99.90;;;;;;4950341;29;20039;-60
2022/04/13 05:00:19;;;;;;;19.40;14.25;;;10.20;99.90;;;;;;4955332;28;20050;-59
2022/04/13 05:02:52;;;;;;;20.92;14.55;;;10.20;99.90;;;;;;4955380;28;20047;-62
2022/04/13 05:05:18;;;;;;;25.88;17.30;;;10.30;99.90;;;;;;4947019;28;20595;-61
2022/04/13 05:07:45;;;;;;;23.27;16.75;;;10.30;99.90;;;;;;4953565;29;20563;-60
2022/04/13 05:10:10;;;;;;;18.95;13.32;;;10.40;99.90;;;;;;4954824;29;20039;-60
2022/04/13 05:12:51;;;;;;;19.58;15.18;;;10.40;99.90;;;;;;4954478;28;20035;-58
2022/04/13 05:15:17;;;;;;;22.40;12.50;;;10.30;99.90;;;;;;4954706;29;20066;-63
2022/04/13 05:17:43;;;;;;;16.73;13.13;;;10.30;99.90;;;;;;4953409;29;20039;-60
2022/04/13 05:20:10;;;;;;;21.85;14.88;;;10.30;99.90;;;;;;4951039;28;20054;-62
2022/04/13 05:22:36;;;;;;;20.88;14.45;;;10.30;99.90;;;;;;4942606;29;20054;-63
2022/04/13 05:25:10;;;;;;;20.73;15.73;;;10.40;99.90;;;;;;4946277;29;20646;-63
2022/04/13 05:27:36;;;;;;;22.48;16.90;;;10.40;99.90;;;;;;4953918;28;20046;-63
2022/04/13 05:30:06;;;;;;;30.75;16.98;;;10.50;99.90;;;;;;4943080;28;20023;-62
2022/04/13 05:32:47;;;;;;;21.98;16.67;;;10.60;99.90;;;;;;4949325;29;20068;-61
2022/04/13 05:35:13;;;;;;;21.92;16.83;;;10.60;99.90;;;;;;4934916;29;20047;-62
2022/04/13 05:37:38;;;;;;;25.73;16.77;;;10.60;99.90;;;;;;4943998;28;20055;-60
2022/04/13 05:40:04;;;;;;;23.45;17.10;;;10.50;99.90;;;;;;4953757;29;20043;-63
2022/04/13 05:42:31;;;;;;;28.13;18.45;;;10.60;99.90;;;;;;4953420;28;20039;-61
2022/04/13 05:44:57;;;;;;;27.45;17.52;;;10.60;99.90;;;;;;4953958;29;20043;-62
2022/04/13 05:47:23;;;;;;;23.98;18.20;;;10.70;99.90;;;;;;4951869;28;20533;-60
2022/04/13 05:49:49;;;;;;;24.92;18.08;;;10.80;99.90;;;;;;4944427;29;20126;-69
2022/04/13 05:52:15;;;;;;;25.92;16.27;;;10.90;99.90;;;;;;4952723;29;20114;-62
2022/04/13 05:54:41;;;;;;;24.50;16.30;;;10.90;99.90;;;;;;4950391;28;20039;-61
2022/04/13 05:57:08;;;;;;;24.02;17.52;;;10.90;99.90;;;;;;4953928;29;20118;-62
2022/04/13 05:59:34;;;;;;;22.35;17.17;;;10.90;99.90;;;;;;4953910;29;20054;-60
2022/04/13 06:02:00;;;;;;;24.80;16.77;;;10.90;99.90;;;;;;4953334;28;20035;-59
2022/04/13 06:04:25;;;;;;;26.70;18.15;;;10.80;99.90;;;;;;4949246;29;20094;-60
2022/04/13 06:06:51;;;;;;;30.48;18.52;;;10.90;99.90;;;;;;4955043;29;20043;-57
2022/04/13 06:09:17;;;;;;;26.40;17.42;;;11.00;99.90;;;;;;4938042;29;20050;-59
2022/04/13 06:11:43;;;;;;;32.13;18.30;;;11.10;99.90;;;;;;4944453;28;20039;-61
2022/04/13 06:14:08;;;;;;;34.05;18.60;;;11.20;99.90;;;;;;4954693;29;20050;-58
2022/04/13 06:16:34;;;;;;;27.40;17.52;;;11.30;99.90;;;;;;4954918;29;20047;-60
2022/04/13 06:18:59;;;;;;;28.15;18.17;;;11.40;99.90;;;;;;4945101;28;20035;-60
2022/04/13 06:21:25;;;;;;;31.88;18.23;;;11.50;99.90;;;;;;4947726;29;20055;-61
2022/04/13 06:23:50;;;;;;;29.77;18.25;;;11.60;99.90;;;;;;4952795;29;20050;-60
2022/04/13 06:26:17;;;;;;;30.20;18.90;;;11.60;99.90;;;;;;4952917;28;20125;-60
2022/04/13 06:28:43;;;;;;;28.88;19.17;;;11.70;99.90;;;;;;4945231;29;20380;-61
2022/04/13 06:31:09;;;;;;;30.25;20.25;;;11.90;99.90;;;;;;4954413;28;20058;-61
2022/04/13 06:33:35;;;;;;;30.60;19.40;;;12.00;99.90;;;;;;4954545;29;20067;-61
2022/04/13 06:36:01;;;;;;;25.70;18.35;;;12.20;99.90;;;;;;4942777;28;20398;-61
2022/04/13 06:38:27;;;;;;;29.63;19.17;;;12.40;99.90;;;;;;4953217;28;20505;-60
2022/04/13 06:40:52;;;;;;;26.88;19.17;;;12.50;99.90;;;;;;4954316;29;20118;-61
2022/04/13 06:43:18;;;;;;;25.45;18.30;;;12.60;99.90;;;;;;4948954;28;20086;-61
2022/04/13 06:45:44;;;;;;;30.05;19.92;;;12.70;99.90;;;;;;4941585;29;20091;-61
2022/04/13 06:48:10;;;;;;;28.52;19.88;;;12.80;99.90;;;;;;4954504;29;20118;-60
2022/04/13 06:50:36;;;;;;;29.23;18.33;;;12.90;99.90;;;;;;4954611;29;20039;-61
2022/04/13 06:53:01;;;;;;;24.20;17.60;;;12.90;99.90;;;;;;4946930;28;20035;-61
2022/04/13 06:55:27;;;;;;;25.95;18.13;;;13.00;99.90;;;;;;4946706;29;20039;-61
2022/04/13 06:57:52;;;;;;;27.95;18.67;;;13.00;99.90;;;;;;4954132;29;20510;-60
2022/04/13 07:00:18;;;;;;;25.75;19.02;;;13.00;99.90;;;;;;4946718;28;20039;-61
2022/04/13 07:02:44;;;;;;;24.88;17.30;;;13.10;99.90;;;;;;4936182;29;20043;-62
2022/04/13 07:05:09;;;;;;;26.55;17.35;;;13.30;99.90;;;;;;4953863;29;20039;-63
2022/04/13 07:07:35;;;;;;;23.85;16.25;;;13.40;99.90;;;;;;4949465;28;20039;-62
2022/04/13 07:10:03;;;;;;;29.27;16.88;;;13.70;99.90;;;;;;4944608;29;20094;-63
2022/04/13 07:12:36;;;;;;;25.90;15.65;;;13.80;99.90;;;;;;4953556;28;20035;-62
2022/04/13 07:15:03;;;;;;;27.48;15.93;;;14.00;99.90;;;;;;4936506;29;20055;-62
2022/04/13 07:17:29;;;;;;;25.33;14.95;;;14.20;99.90;;;;;;4938509;28;20047;-62
2022/04/13 07:19:54;;;;;;;22.52;15.15;;;14.40;99.90;;;;;;4950901;29;20047;-62
2022/04/13 07:22:20;;;;;;;22.05;14.60;;;14.50;99.90;;;;;;4953021;28;20046;-63
2022/04/13 07:24:46;;;;;;;25.58;14.70;;;14.70;99.90;;;;;;4953746;29;20047;-63
2022/04/13 07:27:11;;;;;;;21.00;14.10;;;14.80;99.90;;;;;;4947107;28;20040;-62
2022/04/13 07:29:37;;;;;;;23.38;13.23;;;14.80;99.90;;;;;;4944215;29;20117;-62
2022/04/13 07:32:03;;;;;;;20.52;13.52;;;14.90;99.90;;;;;;4953930;29;20039;-62
2022/04/13 07:34:28;;;;;;;17.50;12.43;;;15.00;99.90;;;;;;4941959;28;20047;-62
2022/04/13 07:36:54;;;;;;;18.73;12.63;;;15.00;99.90;;;;;;4947864;29;20039;-62
2022/04/13 07:39:19;;;;;;;15.38;10.65;;;15.00;99.90;;;;;;4950369;28;20178;-62
2022/04/13 07:41:45;;;;;;;15.88;10.23;;;15.00;99.90;;;;;;4951939;29;20174;-63
2022/04/13 07:44:12;;;;;;;12.75;9.70;;;15.10;99.90;;;;;;4953247;29;20043;-63
2022/04/13 07:46:37;;;;;;;16.10;10.18;;;15.10;99.90;;;;;;4942507;28;20047;-60
2022/04/13 07:49:05;;;;;;;16.95;10.45;;;15.10;99.90;;;;;;4944038;28;20040;-63
2022/04/13 07:51:31;;;;;;;17.10;10.40;;;15.10;99.90;;;;;;4944475;28;20035;-62
2022/04/13 07:53:57;;;;;;;15.75;9.85;;;15.10;99.90;;;;;;4952371;29;20045;-63
2022/04/13 07:56:22;;;;;;;17.08;9.88;;;15.10;99.90;;;;;;4952777;29;20035;-63
2022/04/13 07:58:48;;;;;;;18.02;10.27;;;15.10;99.90;;;;;;4945558;28;20047;-62
2022/04/13 08:01:14;;;;;;;15.38;10.60;;;15.00;99.90;;;;;;4952969;29;20130;-62
2022/04/13 08:03:40;;;;;;;17.33;10.90;;;15.00;99.90;;;;;;4952791;29;20422;-63
2022/04/13 08:06:06;;;;;;;19.20;11.27;;;15.10;99.90;;;;;;4953426;29;20043;-61
2022/04/13 08:08:32;;;;;;;18.17;11.23;;;15.10;99.90;;;;;;4941805;28;20062;-63
2022/04/13 08:10:58;;;;;;;20.75;11.10;;;15.00;99.90;;;;;;4947209;28;20097;-59
2022/04/13 08:13:23;;;;;;;21.98;12.30;;;15.10;99.90;;;;;;4943466;28;20043;-62
2022/04/13 08:15:49;;;;;;;15.60;11.30;;;15.10;99.90;;;;;;4952530;29;20043;-62
2022/04/13 08:18:14;;;;;;;18.85;12.13;;;15.10;99.90;;;;;;4945445;28;20032;-62
2022/04/13 08:20:40;;;;;;;17.23;11.95;;;15.10;99.90;;;;;;4943095;28;20490;-61
2022/04/13 08:23:05;;;;;;;21.17;12.32;;;15.00;99.90;;;;;;4942603;28;20063;-62
2022/04/13 08:25:31;;;;;;;20.40;12.38;;;15.00;99.90;;;;;;4933030;29;20078;-62
2022/04/13 08:27:56;;;;;;;16.38;11.98;;;15.00;99.90;;;;;;4951401;29;20066;-62
2022/04/13 08:30:25;;;;;;;17.52;11.80;;;15.00;99.90;;;;;;4952976;29;20122;-62
2022/04/13 08:32:50;;;;;;;19.25;12.40;;;15.10;99.90;;;;;;4944548;28;20524;-62
2022/04/13 08:35:16;;;;;;;16.83;12.15;;;15.10;99.90;;;;;;4950882;29;20074;-63
2022/04/13 08:37:42;;;;;;;22.75;12.30;;;15.20;99.90;;;;;;4951951;28;20129;-61
2022/04/13 08:40:09;;;;;;;19.75;12.18;;;15.30;99.90;;;;;;4949676;28;20043;-62
2022/04/13 08:42:55;;;;;;;16.25;12.63;;;15.30;99.90;;;;;;4950544;29;20050;-62
2022/04/13 08:45:30;;;;;;;19.33;12.88;;;15.50;99.90;;;;;;4944524;29;20114;-63
2022/04/13 08:47:59;;;;;;;23.25;13.07;;;15.60;99.90;;;;;;4956317;29;20046;-62
2022/04/13 08:50:29;;;;;;;19.45;12.35;;;15.70;99.90;;;;;;4945065;28;20065;-62
2022/04/13 08:53:05;;;;;;;18.25;11.85;;;15.70;99.90;;;;;;4953899;29;20074;-63
2022/04/13 08:55:32;;;;;;;19.20;13.15;;;15.70;99.90;;;;;;4953771;29;20043;-62
2022/04/13 08:58:16;;;;;;;17.88;12.50;;;15.70;99.90;;;;;;4948496;28;20098;-62
2022/04/13 09:00:50;;;;;;;19.80;12.50;;;15.60;99.90;;;;;;4938026;29;20498;-64
2022/04/13 09:03:57;;;;;;;21.20;12.40;;;15.50;99.90;;;;;;4949062;28;20051;-62
2022/04/13 09:06:25;;;;;;;20.10;11.95;;;15.40;99.90;;;;;;4917313;29;20058;-62
2022/04/13 09:08:54;;;;;;;20.23;12.70;;;15.50;99.90;;;;;;4955598;29;20049;-62
2022/04/13 09:11:23;;;;;;;20.20;11.68;;;15.60;99.90;;;;;;4947086;28;20054;-62
2022/04/13 09:13:51;;;;;;;14.15;10.57;;;15.70;99.90;;;;;;4948960;28;20051;-63
2022/04/13 09:16:17;;;;;;;17.95;11.00;;;15.70;99.90;;;;;;4945344;28;20042;-63
2022/04/13 09:18:44;;;;;;;18.77;11.90;;;15.70;99.90;;;;;;4954004;28;20043;-63
2022/04/13 09:21:17;;;;;;;19.50;11.85;;;15.70;99.90;;;;;;4956412;28;20078;-63
2022/04/13 09:23:42;;;;;;;16.95;10.73;;;15.80;99.90;;;;;;4944889;28;20031;-60
2022/04/13 09:26:09;;;;;;;14.25;10.18;;;15.90;99.90;;;;;;4950494;28;20106;-61
2022/04/13 09:28:34;;;;;;;16.45;11.02;;;16.00;99.90;;;;;;4931172;29;20075;-61
2022/04/13 09:31:00;;;;;;;16.52;10.88;;;16.10;99.90;;;;;;4943513;28;20055;-63
2022/04/13 09:33:26;;;;;;;14.48;10.02;;;16.20;99.90;;;;;;4947187;29;20043;-63
2022/04/13 09:35:53;;;;;;;15.68;10.57;;;16.30;99.90;;;;;;4950159;28;20043;-60
2022/04/13 09:38:19;;;;;;;17.67;11.32;;;16.40;99.90;;;;;;4948855;28;20043;-60
2022/04/13 09:40:45;;;;;;;15.68;11.45;;;16.50;99.90;;;;;;4943352;29;20109;-59
2022/04/13 09:43:13;;;;;;;17.60;11.27;;;16.70;99.90;;;;;;4955479;29;20493;-60
2022/04/13 09:45:43;;;;;;;17.80;11.25;;;16.80;99.90;;;;;;4955286;28;20409;-60
2022/04/13 09:48:14;;;;;;;16.85;10.65;;;16.90;99.90;;;;;;4949436;28;20043;-61
2022/04/13 09:50:41;;;;;;;16.15;11.15;;;16.90;99.90;;;;;;4953720;28;20090;-61
2022/04/13 09:53:09;;;;;;;18.08;11.15;;;17.00;99.90;;;;;;4955455;29;20517;-62
2022/04/13 09:55:55;;;;;;;16.77;11.68;;;17.00;99.90;;;;;;4938508;29;20046;-60
2022/04/13 09:58:22;;;;;;;16.27;10.52;;;17.10;99.90;;;;;;4940507;29;20047;-60
2022/04/13 10:00:50;;;;;;;19.17;10.50;;;17.10;99.90;;;;;;4955095;29;20071;-60
2022/04/13 10:03:22;;;;;;;16.05;11.10;;;17.20;99.90;;;;;;4951514;28;20051;-60
2022/04/13 10:05:50;;;;;;;17.83;10.95;;;17.10;99.90;;;;;;4945076;29;20075;-60
2022/04/13 10:08:22;;;;;;;17.08;10.57;;;17.10;99.90;;;;;;4944451;28;20039;-59
2022/04/13 10:10:49;;;;;;;14.02;10.77;;;17.20;99.90;;;;;;4955152;28;20061;-59
2022/04/13 10:13:43;;;;;;;16.75;11.05;;;17.20;99.90;;;;;;4955145;28;20122;-61
2022/04/13 10:16:11;;;;;;;18.92;9.35;;;17.20;99.90;;;;;;4937808;29;20127;-60
2022/04/13 10:19:04;;;;;;;14.27;9.38;;;17.20;99.90;;;;;;4952801;29;20043;-62
2022/04/13 10:21:46;;;;;;;13.52;9.18;;;17.30;99.90;;;;;;4937450;28;20464;-62
2022/04/13 10:24:32;;;;;;;;;;;17.50;99.90;;;;;;4952948;29;20101;-63
2022/04/13 10:27:08;;;;;;;13.15;9.25;;;17.40;99.90;;;;;;4953903;29;20001;-62
2022/04/13 10:29:39;;;;;;;15.95;10.20;;;17.40;99.90;;;;;;4945533;28;20032;-62
2022/04/13 10:32:09;;;;;;;17.48;10.55;;;17.30;99.90;;;;;;4953273;28;20086;-61
2022/04/13 10:34:42;;;;;;;13.82;9.30;;;17.30;99.90;;;;;;4953769;28;20482;-62
2022/04/13 10:37:10;;;;;;;12.07;9.25;;;17.40;99.90;;;;;;4960977;28;20051;-60
2022/04/13 10:39:37;;;;;;;16.85;10.32;;;17.50;99.90;;;;;;4949314;29;20035;-62
2022/04/13 10:42:04;;;;;;;18.10;10.38;;;17.60;99.90;;;;;;4937752;29;20080;-60
2022/04/13 10:44:36;;;;;;;15.63;11.45;;;17.80;99.90;;;;;;4954534;29;20043;-60
2022/04/13 10:47:05;;;;;;;13.80;10.80;;;17.90;99.90;;;;;;4951150;28;20039;-60
2022/04/13 10:50:00;;;;;;;16.25;10.70;;;18.00;99.90;;;;;;4953059;29;20122;-60
2022/04/13 10:52:51;;;;;;;17.52;10.38;;;18.20;99.90;;;;;;4954012;29;20043;-60
2022/04/13 10:55:20;;;;;;;11.55;9.40;;;18.30;99.90;;;;;;4950315;28;20592;-60
2022/04/13 10:58:20;;;;;;;15.10;9.50;;;18.30;99.90;;;;;;4952489;28;20191;-61
2022/04/13 11:00:49;;;;;;;14.67;9.43;;;18.00;99.90;;;;;;4953949;29;20036;-60
2022/04/13 11:03:16;;;;;;;13.70;9.70;;;18.10;99.90;;;;;;4945039;28;20046;-61
2022/04/13 11:05:42;;;;;;;11.27;6.93;;;18.20;99.90;;;;;;4950603;29;20054;-60
2022/04/13 11:08:11;;;;;;;11.73;7.95;;;18.20;99.90;;;;;;4953276;29;20043;-60
2022/04/13 11:10:38;;;;;;;11.05;8.52;;;18.30;99.90;;;;;;4950731;28;20039;-61
2022/04/13 11:13:03;;;;;;;12.07;7.93;;;18.30;99.90;;;;;;4949605;29;20031;-60
2022/04/13 11:15:40;;;;;;;14.45;8.15;;;18.40;99.90;;;;;;4950384;29;20046;-60
2022/04/13 11:18:13;;;;;;;11.65;7.70;;;18.40;99.90;;;;;;4953367;29;20098;-61
2022/04/13 11:21:06;;;;;;;12.38;8.10;;;18.40;99.90;;;;;;4942869;28;20484;-61
2022/04/13 11:23:48;;;;;;;13.85;8.15;;;18.40;99.90;;;;;;4921973;28;20582;-61
2022/04/13 11:26:15;;;;;;;13.00;8.73;;;18.50;99.90;;;;;;4947526;29;20046;-60
2022/04/13 11:28:41;;;;;;;11.65;7.60;;;18.50;99.90;;;;;;4945500;28;20510;-60
2022/04/13 11:31:12;;;;;;;12.55;7.60;;;18.40;99.90;;;;;;4934330;29;20106;-59
2022/04/13 11:33:56;;;;;;;12.10;7.95;;;18.40;99.90;;;;;;4944149;29;20769;-60
2022/04/13 11:36:24;;;;;;;13.27;7.10;;;18.30;99.90;;;;;;4934073;29;20106;-61
2022/04/13 11:38:52;;;;;;;10.13;6.47;;;18.40;99.90;;;;;;4951980;29;20050;-61
2022/04/13 11:41:19;;;;;;;12.13;8.27;;;18.30;99.90;;;;;;4936357;28;20051;-62
2022/04/13 11:43:45;;;;;;;10.68;7.00;;;18.10;99.90;;;;;;4947590;28;20046;-60
2022/04/13 11:46:38;;;;;;;10.30;6.57;;;18.00;99.90;;;;;;4948750;29;20556;-61
2022/04/13 11:49:08;;;;;;;13.40;7.45;;;17.90;99.90;;;;;;4949949;29;20035;-61
2022/04/13 11:51:36;;;;;;;9.35;7.25;;;17.80;99.90;;;;;;4952600;28;20421;-60
2022/04/13 11:54:10;;;;;;;10.23;8.05;;;17.70;99.90;;;;;;4952982;29;20057;-60
2022/04/13 11:56:41;;;;;;;10.40;7.75;;;17.80;99.90;;;;;;4946307;28;20081;-64
2022/04/13 11:59:07;;;;;;;;;;;17.80;99.90;;;;;;4950368;29;20073;-61
2022/04/13 12:01:35;;;;;;;12.15;8.15;;;17.80;99.90;;;;;;4948987;28;19950;-61
2022/04/13 12:04:05;;;;;;;11.38;7.00;;;17.90;99.90;;;;;;4951463;29;20027;-61
2022/04/13 12:06:31;;;;;;;10.02;6.63;;;18.00;99.90;;;;;;4951094;29;20450;-61
2022/04/13 12:08:59;;;;;;;11.65;6.53;;;18.20;99.90;;;;;;4940917;28;20110;-61
2022/04/13 12:11:54;;;;;;;11.00;7.45;;;18.20;99.90;;;;;;4954234;29;20046;-61
2022/04/13 12:14:28;;;;;;;11.95;6.70;;;18.30;99.90;;;;;;4957292;28;20051;-61
2022/04/13 12:16:59;;;;;;;9.65;5.50;;;18.40;99.90;;;;;;4948921;28;20047;-61
2022/04/13 12:19:36;;;;;;;11.23;6.78;;;18.60;99.90;;;;;;4943787;28;20075;-61
2022/04/13 12:22:15;;;;;;;9.60;6.65;;;18.60;99.90;;;;;;4957866;28;20487;-61
2022/04/13 12:24:58;;;;;;;10.25;7.82;;;18.60;99.90;;;;;;4955702;28;20039;-61
2022/04/13 12:27:24;;;;;;;11.73;7.95;;;18.50;99.90;;;;;;4955763;28;20152;-61
2022/04/13 12:29:49;;;;;;;10.25;7.50;;;18.40;99.90;;;;;;4948299;29;20031;-61
2022/04/13 12:32:18;;;;;;;10.45;7.88;;;18.40;99.90;;;;;;4951391;28;20047;-61